FAWB

Details ICAO FAWB (PRY)
Name Wonderboom
Region South Africa
Timezone Africa/Johannesburg (UTC+2.0)
Plans Departing 46
Arriving 22
Stats Elevation 4,095 ft / 1,248 m (AMSL)
Location -25.655766° 28.220427°
Runways 2
Magnetic Variation 18.111° W
Sunrise 2018-05-26 04:44:17 UTC / 2018-05-26 06:44:17 Local
Sunset 2018-05-26 15:26:54 UTC / 2018-05-26 17:26:54 Local
Advertisement - Login to hide

Runways

ID Width Length Bearing (true) Bearing (mag) Surface Threshold Offset Overrun Length
06 72 ft / 22 m 4,202 ft / 1,281 m 43.94° 62.05° Asphalt 0 ft / 0 m 0 ft / 0 m
11 98 ft / 30 m 6,002 ft / 1,829 m 92.62° 110.73° Asphalt 0 ft / 0 m 0 ft / 0 m
24 72 ft / 22 m 4,202 ft / 1,281 m 223.94° 242.05° Asphalt 0 ft / 0 m 0 ft / 0 m
29 98 ft / 30 m 6,002 ft / 1,829 m 272.62° 290.73° Asphalt 0 ft / 0 m 0 ft / 0 m

Map

Weather


0- 5 10 15 20 25 30 35+ Temperature / ° C

Clouds and Precipitation
Forecast for 2018-05-26 00:00 UTC. Updated 2 hours ago

Ground ~20,000 ft ~40,000 ft Winds

METAR

FAWB 260100Z AUTO 00000KT //// // ////// 06/04 Q1021

TAF

Not found

Frequencies

Tower 120.60 MHz TWR
Approach 120.60 MHz APP
Warning: Do not use this data for real-world aviation or navigation. No guarantee of current accuracy is given.